Time;durP1;ratioP1;P1;durP2;ratioP2;P2;SDS_P1;SDS_P2;PMS_P1;PMS_P2;Temp;Humidity;BMP_temperature;BMP_pressure;BME280_temperature;BME280_humidity;BME280_pressure;Samples;Min_cycle;Max_cycle;Signal;HPM_P1;HPM_P2
2022/10/10 00:00:40;;;;;;;6.12;1.77;;;;;;;9.25;84.99;100390.13;1747623;82;21185;-77
2022/10/10 00:03:08;;;;;;;8.05;2.42;;;;;;;9.36;84.73;100395.77;1747582;80;21526;-79
2022/10/10 00:05:36;;;;;;;6.05;2.65;;;;;;;9.31;84.77;100396.20;1747581;82;21560;-77
2022/10/10 00:08:04;;;;;;;6.22;2.10;;;;;;;9.23;85.02;100402.23;1747600;82;21557;-77
2022/10/10 00:10:31;;;;;;;5.80;2.22;;;;;;;9.20;85.11;100391.06;1758330;81;21035;-77
2022/10/10 00:12:59;;;;;;;9.08;1.95;;;;;;;9.20;85.02;100397.70;1739971;81;21078;-77
2022/10/10 00:15:27;;;;;;;3.62;1.90;;;;;;;9.29;84.85;100402.14;1767840;80;21018;-78
2022/10/10 00:17:54;;;;;;;5.45;1.85;;;;;;;9.25;84.85;100402.06;1747591;82;21088;-77
2022/10/10 00:20:22;;;;;;;4.33;1.87;;;;;;;9.19;85.01;100402.64;1758206;81;22008;-78
2022/10/10 00:22:48;;;;;;;4.45;2.00;;;;;;;9.15;85.00;100398.60;1758330;81;21016;-79
2022/10/10 00:25:16;;;;;;;4.45;1.80;;;;;;;9.15;84.95;100403.41;1758226;80;21068;-79
2022/10/10 00:27:43;;;;;;;5.05;2.45;;;;;;;9.20;84.76;100405.65;1757856;81;21516;-78
2022/10/10 00:30:11;;;;;;;3.77;1.90;;;;;;;9.13;84.83;100402.72;1768502;80;21016;-77
2022/10/10 00:32:38;;;;;;;3.85;2.20;;;;;;;9.05;85.13;100407.90;1749402;79;21546;-78
2022/10/10 00:35:06;;;;;;;4.45;1.70;;;;;;;8.96;85.16;100402.12;1778352;80;21026;-77
2022/10/10 00:37:34;;;;;;;3.90;1.75;;;;;;;8.94;85.21;100407.55;1747599;80;21605;-78
2022/10/10 00:40:01;;;;;;;4.95;2.27;;;;;;;9.02;85.04;100402.87;1748937;80;21034;-78
2022/10/10 00:42:27;;;;;;;3.10;1.87;;;;;;;9.00;85.10;100409.66;1749539;82;20990;-77
2022/10/10 00:45:24;;;;;;;7.25;2.42;;;;;;;8.93;85.21;100406.39;1750378;82;21014;-76
2022/10/10 00:47:54;;;;;;;2.85;1.55;;;;;;;8.85;85.33;100412.39;1751426;80;20970;-77
2022/10/10 00:50:20;;;;;;;6.15;2.62;;;;;;;8.85;85.37;100413.22;1744038;81;21564;-77
2022/10/10 00:52:46;;;;;;;6.17;2.20;;;;;;;8.92;85.15;100410.83;1705715;82;21564;-79
2022/10/10 00:55:13;;;;;;;5.58;2.00;;;;;;;8.90;85.27;100411.96;1758423;81;21450;-77
2022/10/10 00:57:40;;;;;;;5.70;1.98;;;;;;;8.87;85.27;100409.61;1748934;81;21056;-77
2022/10/10 01:00:08;;;;;;;4.58;2.40;;;;;;;8.82;85.27;100415.31;1775574;80;21564;-77
2022/10/10 01:02:36;;;;;;;5.03;2.30;;;;;;;8.83;85.18;100411.70;1760248;79;21939;-77
2022/10/10 01:05:03;;;;;;;6.08;2.33;;;;;;;8.94;84.98;100418.65;1758597;81;21076;-76
2022/10/10 01:07:30;;;;;;;5.33;2.40;;;;;;;8.93;84.93;100414.34;1748564;80;21030;-77
2022/10/10 01:10:01;;;;;;;4.58;2.27;;;;;;;8.86;84.85;100415.38;1747732;82;21006;-77
2022/10/10 01:12:53;;;;;;;3.70;1.90;;;;;;;8.79;85.08;100419.59;1747701;80;26779;-77
2022/10/10 01:15:55;;;;;;;4.17;2.00;;;;;;;8.82;85.00;100416.14;1758240;81;21182;-79
2022/10/10 01:18:49;;;;;;;3.27;2.05;;;;;;;8.90;84.66;100417.27;1758009;81;21516;-79
2022/10/10 01:21:44;;;;;;;4.78;1.92;;;;;;;8.83;84.70;100420.48;1758245;81;21023;-77
2022/10/10 01:24:45;;;;;;;3.55;2.10;;;;;;;8.76;84.77;100412.73;1748581;80;21017;-78
2022/10/10 01:27:42;;;;;;;3.83;2.05;;;;;;;8.64;84.90;100423.95;1761536;78;21025;-78
2022/10/10 01:30:14;;;;;;;2.72;2.00;;;;;;;8.65;84.87;100423.46;1778852;80;21479;-78
2022/10/10 01:32:53;;;;;;;2.45;1.82;;;;;;;8.61;84.97;100421.58;1778226;79;21085;-77
2022/10/10 01:35:49;;;;;;;2.75;1.90;;;;;;;8.57;85.13;100422.83;1789384;80;22014;-77
2022/10/10 01:38:24;;;;;;;5.37;1.80;;;;;;;8.46;85.41;100425.63;1773233;81;20987;-77
2022/10/10 01:41:15;;;;;;;2.22;1.75;;;;;;;8.45;85.58;100426.59;1776358;80;21020;-77
2022/10/10 01:43:41;;;;;;;3.77;1.98;;;;;;;8.46;85.47;100425.14;1760136;81;21200;-77
2022/10/10 01:46:12;;;;;;;3.77;2.20;;;;;;;8.39;85.77;100438.53;1742037;82;21077;-76
2022/10/10 01:48:39;;;;;;;4.62;2.35;;;;;;;8.35;85.95;100443.76;1757248;81;21045;-78
2022/10/10 01:51:17;;;;;;;5.20;1.80;;;;;;;8.29;86.05;100440.34;1758009;81;21045;-78
2022/10/10 01:54:11;;;;;;;3.47;1.75;;;;;;;8.38;85.90;100446.61;1756229;81;21045;-77
2022/10/10 01:57:11;;;;;;;3.42;2.02;;;;;;;8.44;85.70;100451.38;1758592;80;21525;-76
2022/10/10 02:00:06;;;;;;;3.27;1.92;;;;;;;8.37;85.90;100456.87;1772128;80;20982;-77
2022/10/10 02:02:46;;;;;;;4.80;2.08;;;;;;;8.29;86.01;100450.92;1789636;80;21016;-76
2022/10/10 02:05:38;;;;;;;5.00;2.00;;;;;;;8.22;86.19;100458.55;1749947;78;21034;-79
2022/10/10 02:08:11;;;;;;;4.37;1.85;;;;;;;8.29;85.95;100450.92;1746285;81;21002;-77
2022/10/10 02:10:48;;;;;;;3.00;1.70;;;;;;;8.36;85.85;100451.20;1747259;82;21065;-77
2022/10/10 02:13:15;;;;;;;7.62;2.00;;;;;;;8.30;85.99;100449.94;1747276;80;21053;-78
2022/10/10 02:15:47;;;;;;;4.95;2.30;;;;;;;8.27;86.07;100462.97;1748679;80;21086;-78
2022/10/10 02:18:15;;;;;;;3.93;1.77;;;;;;;8.28;85.88;100467.27;1803904;79;21031;-77
2022/10/10 02:20:43;;;;;;;4.35;1.80;;;;;;;8.28;85.88;100467.27;1768754;79;21817;-76
2022/10/10 02:23:13;;;;;;;3.55;1.85;;;;;;;8.35;85.49;100478.17;1758057;80;21129;-79
2022/10/10 02:25:39;;;;;;;4.25;1.62;;;;;;;8.27;85.62;100462.97;1758279;81;21500;-78
2022/10/10 02:28:26;;;;;;;2.55;1.60;;;;;;;8.21;85.73;100471.95;1747832;82;21018;-76
2022/10/10 02:30:58;;;;;;;4.95;1.65;;;;;;;8.17;85.79;100478.45;1700579;79;21038;-77
2022/10/10 02:33:31;;;;;;;3.60;1.70;;;;;;;8.20;85.65;100479.53;1762585;79;21010;-77
2022/10/10 02:35:58;;;;;;;5.65;1.80;;;;;;;8.25;85.34;100482.62;1758904;81;21096;-77
2022/10/10 02:38:25;;;;;;;3.22;1.55;;;;;;;8.19;85.47;100490.61;1742396;82;21101;-78
2022/10/10 02:40:52;;;;;;;6.30;2.25;;;;;;;8.12;85.55;100492.11;1754076;81;21539;-77
2022/10/10 02:43:19;;;;;;;3.10;1.52;;;;;;;8.08;85.73;100494.67;1736459;81;21017;-79
2022/10/10 02:45:45;;;;;;;3.42;1.65;;;;;;;8.05;85.62;100489.63;1778402;80;21022;-77
2022/10/10 02:48:12;;;;;;;3.37;1.90;;;;;;;8.15;85.40;100493.64;1770799;80;21135;-77
2022/10/10 02:50:39;;;;;;;3.77;2.10;;;;;;;8.13;85.41;100485.86;1769744;80;21005;-77
2022/10/10 02:53:08;;;;;;;4.15;1.82;;;;;;;8.07;85.50;100484.58;1772175;81;21046;-77
2022/10/10 02:55:35;;;;;;;4.47;2.10;;;;;;;7.97;85.58;100490.30;1789179;80;21536;-77
2022/10/10 02:58:02;;;;;;;6.58;1.80;;;;;;;7.87;85.79;100486.78;1778269;80;21042;-78
2022/10/10 03:00:29;;;;;;;6.83;2.30;;;;;;;7.89;85.82;100488.81;1754001;80;21232;-77
2022/10/10 03:02:55;;;;;;;2.65;2.12;;;;;;;7.97;85.68;100496.91;1747888;82;21018;-76
2022/10/10 03:05:21;;;;;;;4.37;1.98;;;;;;;7.93;85.79;100489.39;1748728;80;21006;-78
2022/10/10 03:07:49;;;;;;;5.25;2.00;;;;;;;7.87;86.02;100496.05;1758196;81;21036;-75
2022/10/10 03:10:16;;;;;;;3.00;1.60;;;;;;;7.82;86.11;100497.77;1758392;81;21020;-78
2022/10/10 03:12:42;;;;;;;3.33;2.15;;;;;;;7.86;85.99;100500.50;1759591;80;21814;-78
2022/10/10 03:15:09;;;;;;;4.05;1.60;;;;;;;7.98;85.60;100495.13;1760965;81;21485;-76
2022/10/10 03:17:36;;;;;;;2.30;1.80;;;;;;;7.94;85.64;100498.98;1761488;80;21058;-77
2022/10/10 03:20:04;;;;;;;3.33;2.05;;;;;;;7.90;85.67;100502.41;1761155;81;21012;-78
2022/10/10 03:22:31;;;;;;;4.37;2.05;;;;;;;7.83;85.66;100502.57;1759192;80;21077;-76
2022/10/10 03:24:58;;;;;;;6.65;2.05;;;;;;;7.77;85.77;100504.42;1773042;80;21194;-77
2022/10/10 03:27:24;;;;;;;2.47;1.62;;;;;;;7.83;85.60;100506.05;1763267;81;20961;-77
2022/10/10 03:29:52;;;;;;;6.35;2.45;;;;;;;7.90;85.44;100505.52;1751481;82;21058;-78
2022/10/10 03:32:19;;;;;;;5.53;1.92;;;;;;;7.81;85.50;100513.27;1763090;80;20989;-77
2022/10/10 03:34:46;;;;;;;3.27;1.82;;;;;;;7.75;85.71;100515.63;1761547;80;21040;-77
2022/10/10 03:37:12;;;;;;;5.75;1.80;;;;;;;7.67;85.90;100513.14;1747368;80;21085;-76
2022/10/10 03:39:39;;;;;;;3.45;1.30;;;;;;;7.72;85.79;100518.02;1761187;80;21024;-79
2022/10/10 03:42:05;;;;;;;3.58;2.45;;;;;;;7.81;85.51;100517.73;1761237;80;21009;-79
2022/10/10 03:44:32;;;;;;;4.78;1.80;;;;;;;7.77;85.67;100511.87;1743795;81;21553;-76
2022/10/10 03:46:58;;;;;;;6.05;2.10;;;;;;;7.74;85.79;100522.70;1778313;80;21085;-77
2022/10/10 03:49:25;;;;;;;6.53;2.15;;;;;;;7.68;85.93;100517.94;1763184;80;21020;-77
2022/10/10 03:51:52;;;;;;;2.72;1.85;;;;;;;7.64;86.09;100525.28;1760999;81;21035;-78
2022/10/10 03:54:19;;;;;;;6.40;2.15;;;;;;;7.68;85.93;100526.70;1761528;81;21079;-77
2022/10/10 03:56:48;;;;;;;3.83;1.98;;;;;;;7.77;85.64;100524.27;1775660;80;21039;-77
2022/10/10 03:59:15;;;;;;;5.65;2.15;;;;;;;7.71;85.77;100519.01;1778102;80;21093;-76
2022/10/10 04:01:41;;;;;;;5.47;2.25;;;;;;;7.63;86.02;100526.27;1775538;80;21105;-78
2022/10/10 04:04:08;;;;;;;6.33;5.00;;;;;;;7.58;86.14;100524.98;1761148;81;21044;-77
2022/10/10 04:06:35;;;;;;;7.35;2.52;;;;;;;7.57;86.12;100521.51;1747074;82;21082;-78
2022/10/10 04:09:02;;;;;;;3.92;2.30;;;;;;;7.65;85.95;100532.27;1761174;81;21028;-77
2022/10/10 04:11:28;;;;;;;3.22;2.08;;;;;;;7.64;86.09;100532.39;1761074;81;21510;-76
2022/10/10 04:13:55;;;;;;;8.10;2.77;;;;;;;7.59;86.25;100534.11;1745619;80;22013;-76
2022/10/10 04:16:21;;;;;;;3.60;2.02;;;;;;;7.54;86.34;100536.30;1758526;81;21017;-79
2022/10/10 04:18:48;;;;;;;3.30;1.80;;;;;;;7.50;86.54;100544.13;1758424;80;21056;-78
2022/10/10 04:21:15;;;;;;;9.20;2.77;;;;;;;7.53;86.37;100541.70;1749866;80;21050;-77
2022/10/10 04:23:42;;;;;;;7.10;2.12;;;;;;;7.60;86.22;100544.20;1750586;82;21585;-77
2022/10/10 04:26:09;;;;;;;5.87;1.90;;;;;;;7.56;86.34;100548.07;1748189;82;21160;-78
2022/10/10 04:28:36;;;;;;;4.65;1.65;;;;;;;7.52;86.54;100540.05;1747379;82;21594;-77
2022/10/10 04:31:03;;;;;;;4.22;2.10;;;;;;;7.45;86.54;100541.86;1760454;80;21041;-77
2022/10/10 04:33:29;;;;;;;4.28;1.80;;;;;;;7.44;86.75;100552.09;1726603;83;21005;-77
2022/10/10 04:35:56;;;;;;;3.62;1.77;;;;;;;7.51;86.50;100547.61;1747552;80;21608;-77
2022/10/10 04:38:22;;;;;;;2.60;1.77;;;;;;;7.47;86.70;100546.56;1747457;82;22052;-77
2022/10/10 04:40:49;;;;;;;4.17;2.30;;;;;;;7.41;86.78;100547.54;1747597;82;21092;-76
2022/10/10 04:43:17;;;;;;;3.55;2.25;;;;;;;7.36;87.01;100543.11;1747398;82;21093;-77
2022/10/10 04:45:43;;;;;;;3.50;2.33;;;;;;;7.42;86.92;100551.38;1747406;82;21033;-78
2022/10/10 04:48:11;;;;;;;5.87;2.30;;;;;;;7.54;86.62;100556.62;1748423;78;21581;-77
2022/10/10 04:50:38;;;;;;;6.35;2.92;;;;;;;7.54;86.68;100553.97;1768198;80;21113;-78
2022/10/10 04:53:04;;;;;;;5.50;2.37;;;;;;;7.51;86.77;100555.54;1773406;80;21086;-77
2022/10/10 04:55:32;;;;;;;6.47;2.90;;;;;;;7.49;86.75;100556.98;1778204;80;21049;-78
2022/10/10 04:57:59;;;;;;;5.70;2.85;;;;;;;7.53;86.65;100562.37;1778284;80;21026;-80
2022/10/10 05:00:25;;;;;;;4.03;2.62;;;;;;;7.65;86.62;100560.03;1766470;78;21030;-79
2022/10/10 05:02:52;;;;;;;4.03;2.40;;;;;;;7.71;86.54;100565.75;1758148;81;21585;-77
2022/10/10 05:05:18;;;;;;;6.58;3.27;;;;;;;7.72;86.42;100566.13;1742642;81;21545;-78
2022/10/10 05:07:45;;;;;;;6.12;2.80;;;;;;;7.71;86.41;100568.40;1758155;81;21580;-77
2022/10/10 05:10:13;;;;;;;4.22;2.50;;;;;;;7.78;86.33;100566.43;1758231;81;20977;-78
2022/10/10 05:12:41;;;;;;;6.55;2.55;;;;;;;7.96;85.85;100571.98;1759573;80;21044;-77
2022/10/10 05:15:08;;;;;;;3.98;2.70;;;;;;;7.96;85.72;100579.92;1795928;80;21203;-77
2022/10/10 05:17:35;;;;;;;5.03;2.77;;;;;;;7.97;85.76;100578.94;1788325;78;20966;-79
2022/10/10 05:20:01;;;;;;;6.00;2.20;;;;;;;7.98;85.59;100577.98;1797503;80;21032;-79
2022/10/10 05:22:28;;;;;;;3.20;1.75;;;;;;;8.04;85.33;100581.92;1771810;80;21193;-79
2022/10/10 05:24:55;;;;;;;5.12;2.40;;;;;;;8.16;85.09;100585.32;1729288;82;21068;-76
2022/10/10 05:27:23;;;;;;;4.75;2.08;;;;;;;8.17;85.03;100578.58;1744930;80;21049;-78
2022/10/10 05:29:50;;;;;;;4.75;2.37;;;;;;;8.17;85.15;100581.22;1767417;78;21055;-78
2022/10/10 05:32:16;;;;;;;6.25;2.33;;;;;;;8.21;85.13;100585.28;1795369;80;21535;-76
2022/10/10 05:34:43;;;;;;;6.25;2.10;;;;;;;8.27;84.92;100586.56;1795413;80;20989;-78
2022/10/10 05:37:10;;;;;;;4.95;2.12;;;;;;;8.39;84.59;100586.81;1795969;80;21084;-79
2022/10/10 05:39:38;;;;;;;6.25;2.83;;;;;;;8.57;84.27;100588.36;1769187;80;21274;-79
2022/10/10 05:42:05;;;;;;;4.50;2.22;;;;;;;8.63;83.68;100586.98;1763841;81;21021;-79
2022/10/10 05:44:32;;;;;;;6.20;2.98;;;;;;;8.61;83.72;100582.31;1788329;80;20997;-77
2022/10/10 05:47:01;;;;;;;5.08;2.20;;;;;;;8.63;83.77;100586.98;1795357;80;21006;-79
2022/10/10 05:49:27;;;;;;;4.65;2.40;;;;;;;8.69;83.47;100588.27;1795466;80;20977;-77
2022/10/10 05:51:55;;;;;;;4.58;2.52;;;;;;;8.85;82.91;100591.25;1795257;80;21166;-78
2022/10/10 05:54:22;;;;;;;7.12;2.47;;;;;;;8.95;82.59;100593.42;1794827;80;21592;-78
2022/10/10 05:56:48;;;;;;;6.72;2.75;;;;;;;8.98;82.59;100594.48;1774093;80;21045;-78
2022/10/10 05:59:16;;;;;;;6.65;2.10;;;;;;;9.01;82.31;100594.69;1795135;80;21017;-77
2022/10/10 06:01:42;;;;;;;4.30;2.30;;;;;;;9.05;82.22;100595.59;1795137;80;21084;-75
2022/10/10 06:04:09;;;;;;;7.00;2.72;;;;;;;9.10;82.15;100600.50;1795179;80;21279;-75
2022/10/10 06:06:37;;;;;;;3.62;2.20;;;;;;;9.21;81.53;100599.05;1795215;80;21029;-78
2022/10/10 06:09:03;;;;;;;3.10;2.08;;;;;;;9.35;81.14;100603.09;1797177;80;21122;-77
2022/10/10 06:11:30;;;;;;;8.83;2.67;;;;;;;9.42;80.96;100601.55;1798030;80;20992;-77
2022/10/10 06:13:57;;;;;;;3.50;2.10;;;;;;;9.46;80.89;100614.04;1765375;80;21011;-79
2022/10/10 06:16:25;;;;;;;5.95;2.62;;;;;;;9.48;80.55;100609.43;1764426;81;21137;-78
2022/10/10 06:18:55;;;;;;;6.62;2.55;;;;;;;9.54;80.55;100619.51;1763887;80;21500;-77
2022/10/10 06:21:22;;;;;;;5.15;1.98;;;;;;;9.59;80.36;100617.25;1732026;82;21141;-79
2022/10/10 06:23:49;;;;;;;3.60;2.20;;;;;;;9.73;80.04;100618.64;1744668;82;21022;-77
2022/10/10 06:51:23;;;;;;;7.83;2.42;;;;;;;12.86;70.01;100622.59;1766044;80;28095;-80
2022/10/10 06:53:49;;;;;;;4.03;2.30;;;;;;;12.84;69.61;100623.25;1727160;83;21022;-77
2022/10/10 06:56:22;;;;;;;3.85;2.77;;;;;;;12.72;69.65;100620.05;1727067;83;21989;-79
2022/10/10 06:58:49;;;;;;;3.30;2.30;;;;;;;12.60;69.98;100626.17;1727261;82;22143;-78
2022/10/10 07:01:18;;;;;;;3.92;2.27;;;;;;;12.49;70.19;100622.44;1727054;82;21150;-78
2022/10/10 07:03:45;;;;;;;7.25;2.67;;;;;;;12.40;70.25;100626.91;1727008;82;21045;-79
2022/10/10 07:06:11;;;;;;;5.17;2.70;;;;;;;12.31;70.34;100632.67;1727082;83;21073;-78
2022/10/10 07:08:39;;;;;;;6.30;2.02;;;;;;;12.17;70.68;100639.92;1727258;83;21148;-77
2022/10/10 07:11:06;;;;;;;5.12;2.72;;;;;;;12.10;71.18;100636.20;1727004;82;21007;-79
2022/10/10 07:13:35;;;;;;;3.80;2.02;;;;;;;12.10;71.10;100634.88;1727235;82;21053;-78
2022/10/10 07:16:02;;;;;;;4.75;2.47;;;;;;;12.04;71.16;100623.52;1727066;83;21081;-77
2022/10/10 07:18:29;;;;;;;4.62;2.35;;;;;;;12.01;71.20;100627.31;1727260;83;21045;-79
2022/10/10 07:20:57;;;;;;;4.83;2.67;;;;;;;11.96;71.45;100629.63;1727259;82;21152;-77
2022/10/10 07:23:24;;;;;;;4.95;2.40;;;;;;;11.91;71.67;100627.91;1734235;81;21430;-77
2022/10/10 07:25:54;;;;;;;3.87;1.90;;;;;;;11.90;71.38;100628.41;1746790;81;21045;-79
2022/10/10 07:28:20;;;;;;;2.98;2.33;;;;;;;11.86;71.51;100624.36;1759931;81;20940;-78
2022/10/10 07:30:47;;;;;;;3.00;2.27;;;;;;;11.91;71.57;100626.58;1759675;81;21143;-77
2022/10/10 07:33:13;;;;;;;3.62;2.15;;;;;;;12.01;71.53;100629.97;1757748;81;21088;-78
2022/10/10 07:35:40;;;;;;;4.00;1.80;;;;;;;12.00;71.32;100623.82;1757510;81;21042;-79
2022/10/10 07:38:06;;;;;;;6.30;2.08;;;;;;;11.99;71.44;100627.49;1757040;81;21574;-78
2022/10/10 07:40:33;;;;;;;5.83;2.60;;;;;;;12.04;71.59;100623.02;1742592;81;21041;-78
2022/10/10 07:43:00;;;;;;;3.87;2.30;;;;;;;12.15;71.42;100628.59;1727052;83;21041;-78
2022/10/10 07:45:26;;;;;;;7.28;2.12;;;;;;;12.25;70.97;100621.32;1727056;82;21626;-78
2022/10/10 07:47:53;;;;;;;4.60;2.00;;;;;;;12.27;70.20;100615.84;1727223;83;21150;-79
2022/10/10 07:50:19;;;;;;;2.72;2.22;;;;;;;12.28;70.32;100618.83;1726865;83;21042;-78
2022/10/10 07:52:46;;;;;;;2.77;1.80;;;;;;;12.33;69.75;100619.20;1719411;82;21481;-78
2022/10/10 07:55:14;;;;;;;3.35;1.82;;;;;;;12.38;69.86;100624.39;1712228;83;21002;-77
2022/10/10 07:57:42;;;;;;;2.85;1.87;;;;;;;12.46;69.62;100618.28;1690648;84;21042;-78
2022/10/10 08:00:10;;;;;;;4.22;2.10;;;;;;;12.58;69.12;100620.16;1690064;84;21789;-78
2022/10/10 08:02:39;;;;;;;1.95;1.40;;;;;;;12.67;68.89;100615.69;1689696;84;21525;-79
2022/10/10 08:05:06;;;;;;;3.02;1.52;;;;;;;12.78;68.27;100624.23;1689810;85;21101;-79
2022/10/10 08:07:33;;;;;;;4.10;2.20;;;;;;;12.86;67.73;100614.59;1689949;84;21171;-79
2022/10/10 08:10:01;;;;;;;5.17;2.00;;;;;;;12.95;67.69;100622.45;1690058;84;21513;-78
2022/10/10 08:12:27;;;;;;;4.92;2.10;;;;;;;13.06;67.04;100617.84;1689798;85;21022;-78
2022/10/10 08:14:54;;;;;;;4.85;2.15;;;;;;;13.17;66.55;100620.17;1689699;84;21073;-79
2022/10/10 08:17:20;;;;;;;3.22;1.67;;;;;;;13.34;66.20;100619.23;1689955;84;21592;-79
2022/10/10 08:19:47;;;;;;;5.12;1.80;;;;;;;13.52;65.81;100620.45;1692317;84;20979;-78
2022/10/10 08:22:13;;;;;;;2.35;1.70;;;;;;;13.71;64.77;100617.09;1695861;83;21132;-77
2022/10/10 08:24:39;;;;;;;3.87;1.50;;;;;;;13.87;64.70;100621.11;1728167;83;21002;-79
2022/10/10 08:27:06;;;;;;;5.70;1.80;;;;;;;14.07;63.91;100626.09;1726823;82;21018;-79
2022/10/10 08:29:33;;;;;;;8.30;1.90;;;;;;;14.25;63.37;100615.20;1726868;83;21057;-77
2022/10/10 08:31:59;;;;;;;5.58;2.20;;;;;;;14.42;62.73;100621.34;1726721;82;21013;-78
2022/10/10 08:34:26;;;;;;;4.47;1.77;;;;;;;14.58;62.17;100623.16;1726414;83;21539;-79
2022/10/10 08:36:53;;;;;;;3.83;2.17;;;;;;;14.71;61.69;100622.92;1726423;82;21113;-79
2022/10/10 08:39:19;;;;;;;6.33;2.10;;;;;;;14.84;61.52;100618.37;1726541;83;21026;-79
2022/10/10 08:41:53;;;;;;;3.40;1.50;;;;;;;15.03;60.68;100619.78;1726540;81;21006;-79
2022/10/10 08:44:38;;;;;;;5.17;1.72;;;;;;;15.23;59.88;100614.80;1726478;83;21050;-78
2022/10/10 08:47:21;;;;;;;2.47;2.00;;;;;;;15.40;58.79;100614.19;1726127;82;21098;-79
2022/10/10 08:50:06;;;;;;;;;;;;;;;15.62;58.62;100614.36;1729575;82;21002;-79
2022/10/10 08:52:41;;;;;;;3.98;1.80;;;;;;;15.90;57.48;100618.16;1727278;82;20209;-78
2022/10/10 08:55:32;;;;;;;2.87;1.60;;;;;;;16.30;56.45;100613.42;1705009;84;21119;-78
2022/10/10 08:58:04;;;;;;;3.25;1.77;;;;;;;16.79;55.45;100617.36;1705374;84;21020;-79
2022/10/10 09:00:35;;;;;;;3.67;1.82;;;;;;;17.29;54.23;100614.87;1705330;84;21423;-79
2022/10/10 09:03:01;;;;;;;1.47;1.30;;;;;;;17.84;53.51;100615.18;1705473;84;21025;-80
2022/10/10 09:05:39;;;;;;;4.67;2.00;;;;;;;18.42;51.87;100608.23;1681577;84;21048;-79
2022/10/10 09:08:26;;;;;;;4.15;1.90;;;;;;;18.98;50.92;100616.69;1704847;84;21005;-80
2022/10/10 09:11:03;;;;;;;3.33;1.70;;;;;;;19.38;50.17;100617.63;1687323;84;21098;-79
2022/10/10 09:13:45;;;;;;;4.72;1.70;;;;;;;19.80;48.76;100617.50;1707092;84;21174;-80
2022/10/10 09:16:24;;;;;;;4.05;1.95;;;;;;;20.27;47.81;100610.70;1708365;84;21101;-79
2022/10/10 09:19:14;;;;;;;4.37;1.85;;;;;;;20.75;46.96;100615.25;1705950;84;21533;-80
2022/10/10 09:21:41;;;;;;;1.82;1.57;;;;;;;21.34;45.74;100606.53;1705692;82;21186;-78
2022/10/10 09:24:24;;;;;;;2.95;2.25;;;;;;;21.99;43.64;100604.88;1735005;82;21030;-79
2022/10/10 09:26:59;;;;;;;2.58;2.08;;;;;;;22.43;43.23;100606.78;1734640;82;21548;-80
2022/10/10 09:29:43;;;;;;;3.83;1.50;;;;;;;22.88;41.52;100611.32;1734788;82;21076;-79
2022/10/10 09:32:20;;;;;;;5.30;1.62;;;;;;;23.18;40.57;100606.48;1709753;82;21014;-78
2022/10/10 09:35:27;;;;;;;1.67;1.50;;;;;;;23.55;40.20;100611.77;1705144;84;21591;-80
2022/10/10 09:38:02;;;;;;;4.40;1.70;;;;;;;24.02;39.73;100605.05;1705618;84;21107;-80
2022/10/10 09:40:43;;;;;;;3.77;1.57;;;;;;;24.59;38.73;100600.88;1705212;82;21142;-79
2022/10/10 09:43:16;;;;;;;3.45;1.60;;;;;;;25.22;37.70;100592.31;1705491;84;21065;-77
2022/10/10 09:45:57;;;;;;;4.03;1.70;;;;;;;25.82;36.74;100594.42;1705179;84;21075;-78
2022/10/10 09:48:38;;;;;;;2.62;1.70;;;;;;;26.20;35.76;100592.02;1705531;84;21053;-79
2022/10/10 09:51:16;;;;;;;2.20;1.60;;;;;;;26.55;35.23;100590.84;1695540;84;21076;-79
2022/10/10 09:53:43;;;;;;;2.67;1.72;;;;;;;26.84;35.42;100596.93;1698986;83;21126;-78
2022/10/10 09:56:15;;;;;;;3.65;1.82;;;;;;;27.23;34.62;100593.50;1697819;83;21049;-80
2022/10/10 09:58:43;;;;;;;1.50;1.40;;;;;;;27.43;33.74;100586.09;1698298;84;21045;-79
2022/10/10 10:01:25;;;;;;;1.98;1.67;;;;;;;27.47;33.00;100585.04;1697376;84;21033;-79
2022/10/10 10:04:15;;;;;;;3.40;1.70;;;;;;;27.54;32.76;100586.98;1697929;84;21073;-78
2022/10/10 10:06:44;;;;;;;2.30;1.60;;;;;;;27.68;33.06;100575.11;1700775;84;21571;-80
2022/10/10 10:09:21;;;;;;;2.00;1.60;;;;;;;28.06;32.41;100569.64;1700249;84;21089;-77
2022/10/10 10:11:55;;;;;;;3.85;1.75;;;;;;;28.39;32.41;100579.36;1697851;84;21025;-80
2022/10/10 10:14:31;;;;;;;3.92;1.65;;;;;;;28.75;31.97;100567.23;1698033;84;21100;-79
2022/10/10 10:17:12;;;;;;;1.95;1.60;;;;;;;28.93;31.81;100560.42;1697814;84;21101;-80
2022/10/10 10:19:43;;;;;;;2.20;1.80;;;;;;;29.13;31.39;100561.86;1679693;84;21218;-80
2022/10/10 10:22:36;;;;;;;2.10;1.70;;;;;;;29.33;31.09;100566.52;1698016;83;21002;-79
2022/10/10 10:25:36;;;;;;;1.92;1.50;;;;;;;29.36;30.80;100556.41;1689935;84;21038;-77
2022/10/10 10:28:15;;;;;;;2.35;1.70;;;;;;;29.40;29.29;100556.69;1688940;85;21841;-79
2022/10/10 10:30:43;;;;;;;1.98;1.70;;;;;;;29.62;29.20;100562.41;1690059;85;21100;-80
2022/10/10 10:33:38;;;;;;;3.33;1.60;;;;;;;29.80;28.69;100552.27;1689828;84;21769;-77
2022/10/10 10:36:19;;;;;;;1.60;1.50;;;;;;;29.83;28.60;100559.95;1689822;85;21554;-80
2022/10/10 10:38:53;;;;;;;2.22;1.70;;;;;;;30.05;28.48;100551.94;1689796;84;21220;-79
2022/10/10 10:41:41;;;;;;;1.75;1.47;;;;;;;30.32;27.74;100557.89;1689599;83;21057;-80
2022/10/10 10:44:25;;;;;;;3.52;1.40;;;;;;;30.41;27.69;100556.78;1689585;84;21096;-79
2022/10/10 10:47:09;;;;;;;2.52;1.50;;;;;;;30.69;27.32;100565.41;1689722;85;21199;-78
2022/10/10 10:50:06;;;;;;;3.42;2.00;;;;;;;30.93;27.31;100560.09;1689588;84;21058;-80
2022/10/10 10:52:39;;;;;;;2.70;1.77;;;;;;;31.37;26.78;100557.84;1655949;83;21053;-80
2022/10/10 10:55:35;;;;;;;4.45;1.80;;;;;;;31.62;26.60;100569.72;1708100;83;21057;-80
2022/10/10 10:58:33;;;;;;;3.15;1.72;;;;;;;31.70;26.45;100567.73;1727551;83;20979;-81
2022/10/10 11:01:04;;;;;;;1.95;1.55;;;;;;;31.72;26.48;100558.66;1728694;83;21209;-80
2022/10/10 11:03:58;;;;;;;4.08;1.82;;;;;;;31.90;26.32;100555.15;1691040;84;21029;-80
2022/10/10 11:06:58;;;;;;;1.60;1.50;;;;;;;32.15;26.47;100561.51;1709375;83;21528;-79
2022/10/10 11:09:51;;;;;;;2.22;1.60;;;;;;;32.44;26.24;100557.86;1697873;84;21069;-79
2022/10/10 11:12:53;;;;;;;1.60;1.50;;;;;;;32.59;25.85;100559.06;1697672;84;21088;-79
2022/10/10 11:15:37;;;;;;;5.87;1.77;;;;;;;32.66;26.26;100559.48;1697374;84;21108;-79
2022/10/10 11:18:15;;;;;;;3.15;1.72;;;;;;;32.66;26.25;100555.93;1697365;84;21022;-80
2022/10/10 11:20:49;;;;;;;3.47;1.90;;;;;;;32.49;26.44;100566.02;1697399;84;21025;-78
2022/10/10 11:23:33;;;;;;;5.72;1.72;;;;;;;32.61;26.59;100561.52;1697280;84;21061;-81
2022/10/10 11:26:11;;;;;;;3.10;1.90;;;;;;;32.82;26.33;100566.99;1697427;84;21029;-80
2022/10/10 11:28:42;;;;;;;2.17;1.57;;;;;;;32.91;26.08;100556.92;1697679;84;21125;-80
2022/10/10 11:31:16;;;;;;;2.77;1.80;;;;;;;33.15;25.98;100555.22;1679684;84;21263;-79
2022/10/10 11:33:46;;;;;;;1.60;1.50;;;;;;;33.25;25.40;100555.89;1697442;84;21068;-79
2022/10/10 11:36:20;;;;;;;1.60;1.50;;;;;;;33.30;25.35;100553.06;1702079;83;21033;-78
2022/10/10 11:39:23;;;;;;;2.25;1.50;;;;;;;33.32;25.40;100556.05;1726210;82;21648;-79
2022/10/10 11:42:06;;;;;;;2.08;1.60;;;;;;;33.22;25.82;100555.67;1726431;83;21534;-79
2022/10/10 11:44:42;;;;;;;1.92;1.80;;;;;;;33.49;25.35;100548.05;1726611;82;21967;-79
2022/10/10 11:47:31;;;;;;;2.65;1.82;;;;;;;33.81;25.34;100554.67;1727176;83;21065;-79
2022/10/10 11:50:26;;;;;;;2.87;1.70;;;;;;;34.06;24.95;100554.73;1726868;83;21564;-79
2022/10/10 11:53:34;;;;;;;1.60;1.50;;;;;;;34.11;24.77;100557.95;1729733;82;21368;-79
2022/10/10 11:56:18;;;;;;;2.67;1.85;;;;;;;34.23;24.96;100561.02;1720922;82;21117;-80
2022/10/10 11:58:49;;;;;;;2.37;1.82;;;;;;;34.33;24.62;100566.34;1728141;82;20999;-82
2022/10/10 12:01:44;;;;;;;3.10;1.80;;;;;;;34.34;24.62;100566.59;1727544;82;21078;-81
2022/10/10 12:04:11;;;;;;;4.12;1.90;;;;;;;34.21;24.71;100567.41;1684018;83;21061;-81
2022/10/10 12:06:43;;;;;;;2.55;1.70;;;;;;;33.95;24.83;100559.63;1689673;85;21574;-78
2022/10/10 12:09:18;;;;;;;3.33;1.90;;;;;;;33.93;24.54;100561.06;1690082;85;21107;-80
2022/10/10 12:11:55;;;;;;;3.67;1.67;;;;;;;34.00;24.40;100560.11;1689789;84;21033;-79
2022/10/10 12:14:21;;;;;;;2.47;1.65;;;;;;;34.06;24.43;100566.58;1689920;85;21560;-80
2022/10/10 12:16:48;;;;;;;3.72;2.70;;;;;;;34.25;24.34;100565.13;1689646;85;21021;-79
2022/10/10 12:19:20;;;;;;;2.40;1.82;;;;;;;34.33;24.29;100564.97;1690293;84;21061;-79